Time;durP1;ratioP1;P1;durP2;ratioP2;P2;SDS_P1;SDS_P2;PMS_P1;PMS_P2;Temp;Humidity;BMP_temperature;BMP_pressure;BME280_temperature;BME280_humidity;BME280_pressure;Samples;Min_cycle;Max_cycle;Signal;HPM_P1;HPM_P2
2022/05/23 00:02:24;;;;;;;1.30;1.20;;;;;;;14.96;100.00;99581.27;1675533;86;21099;-62
2022/05/23 00:04:52;;;;;;;1.22;1.10;;;;;;;14.95;100.00;99590.81;1738676;82;21080;-62
2022/05/23 00:07:36;;;;;;;1.35;1.10;;;;;;;14.63;100.00;99599.27;1738825;82;21040;-63
2022/05/23 00:10:08;;;;;;;2.83;1.22;;;;;;;14.10;100.00;99609.23;1738494;82;21553;-62
2022/05/23 00:12:36;;;;;;;1.57;1.45;;;;;;;14.32;100.00;99611.55;1675566;85;21044;-62
2022/05/23 00:15:07;;;;;;;1.50;1.37;;;;;;;14.29;100.00;99619.05;1675512;85;21121;-63
2022/05/23 00:17:35;;;;;;;1.50;1.30;;;;;;;14.14;100.00;99630.55;1739079;82;21108;-63
2022/05/23 00:20:10;;;;;;;1.52;1.30;;;;;;;14.56;100.00;99627.87;1739163;82;21012;-63
2022/05/23 00:22:38;;;;;;;3.10;1.50;;;;;;;14.45;100.00;99633.46;1675653;85;21081;-62
2022/05/23 00:25:09;;;;;;;2.70;1.60;;;;;;;14.36;100.00;99636.27;1739020;82;21092;-62
2022/05/23 00:27:40;;;;;;;2.98;1.62;;;;;;;14.58;100.00;99635.06;1739020;82;21025;-62
2022/05/23 00:30:14;;;;;;;4.03;1.62;;;;;;;14.26;100.00;99640.48;1738636;82;21032;-62
2022/05/23 00:35:30;;;;;;;2.67;1.50;;;;;;;14.23;100.00;99646.23;1743062;82;21083;-63
2022/05/23 00:37:58;;;;;;;4.22;1.70;;;;;;;14.19;100.00;99647.84;1670998;84;21524;-63
2022/05/23 00:43:50;;;;;;;3.75;1.87;;;;;;;13.79;100.00;99642.98;1744291;82;21513;-63
2022/05/23 00:46:17;;;;;;;2.55;1.50;;;;;;;13.88;100.00;99651.83;1743238;82;21012;-63
2022/05/23 00:48:45;;;;;;;2.12;1.80;;;;;;;13.85;100.00;99645.57;1744301;82;21048;-63
2022/05/23 00:51:15;;;;;;;2.00;1.80;;;;;;;13.44;100.00;99655.31;1744312;82;21575;-63
2022/05/23 00:53:53;;;;;;;2.72;1.80;;;;;;;13.37;100.00;99659.27;1671176;85;21556;-63
2022/05/23 00:56:26;;;;;;;2.30;2.00;;;;;;;13.60;100.00;99656.36;1744551;82;21437;-63
2022/05/23 00:58:59;;;;;;;3.83;2.15;;;;;;;13.25;100.00;99667.38;1744535;82;21020;-63
2022/05/23 01:01:30;;;;;;;2.62;2.10;;;;;;;13.45;100.00;99664.73;1744578;82;21068;-64
2022/05/23 01:03:58;;;;;;;3.22;2.02;;;;;;;13.49;100.00;99667.94;1671347;86;21016;-63
2022/05/23 01:06:25;;;;;;;2.15;1.82;;;;;;;13.41;100.00;99662.00;1744590;82;21012;-63
2022/05/23 01:08:56;;;;;;;2.65;2.10;;;;;;;13.22;100.00;99669.70;1744577;82;21092;-63
2022/05/23 01:11:24;;;;;;;2.30;2.10;;;;;;;12.88;100.00;99675.52;1744251;81;21052;-63
2022/05/23 01:13:56;;;;;;;3.92;2.22;;;;;;;13.27;100.00;99681.48;1744531;82;21032;-63
2022/05/23 01:16:26;;;;;;;2.90;2.00;;;;;;;13.27;100.00;99683.59;1744447;82;20985;-63
2022/05/23 01:18:55;;;;;;;3.20;2.17;;;;;;;13.08;100.00;99685.33;1652088;86;21539;-63
2022/05/23 01:21:30;;;;;;;2.85;2.02;;;;;;;13.27;100.00;99688.77;1744207;81;21529;-63
2022/05/23 01:24:21;;;;;;;4.08;2.15;;;;;;;12.79;100.00;99704.05;1744461;82;21013;-63
2022/05/23 01:26:53;;;;;;;4.20;2.35;;;;;;;12.90;100.00;99702.06;1730193;82;21032;-62
2022/05/23 01:29:22;;;;;;;3.80;2.60;;;;;;;12.92;100.00;99710.06;1670089;86;21028;-63
2022/05/23 01:31:55;;;;;;;3.30;2.33;;;;;;;12.80;100.00;99710.88;1744546;82;21104;-63
2022/05/23 01:34:27;;;;;;;3.90;2.72;;;;;;;12.62;100.00;99713.73;1741652;82;21139;-63
2022/05/23 01:37:03;;;;;;;3.60;2.47;;;;;;;11.97;100.00;99717.02;1675102;85;21065;-63
2022/05/23 01:39:32;;;;;;;3.70;2.40;;;;;;;12.67;100.00;99718.59;1675348;85;21072;-63
2022/05/23 01:42:00;;;;;;;5.92;2.80;;;;;;;12.80;100.00;99722.51;1738771;82;21087;-63
2022/05/23 01:44:28;;;;;;;3.67;2.42;;;;;;;12.72;100.00;99721.71;1738745;82;21072;-63
2022/05/23 01:46:57;;;;;;;3.75;2.80;;;;;;;12.77;100.00;99721.41;1737233;82;21485;-63
2022/05/23 01:49:26;;;;;;;4.22;3.17;;;;;;;12.75;100.00;99720.67;1675446;85;21082;-63
2022/05/23 01:51:53;;;;;;;4.95;3.08;;;;;;;11.98;100.00;99732.03;1675197;86;21530;-63
2022/05/23 01:54:21;;;;;;;5.67;3.17;;;;;;;12.63;100.00;99729.61;1675015;86;21072;-63
2022/05/23 01:56:51;;;;;;;5.42;3.62;;;;;;;12.54;100.00;99730.19;1738983;82;21064;-63
2022/05/23 02:02:09;;;;;;;8.28;3.67;;;;;;;12.38;100.00;99730.34;1675589;85;21057;-63
2022/05/23 02:04:39;;;;;;;8.50;3.52;;;;;;;12.68;100.00;99724.60;1675673;86;21502;-62
2022/05/23 02:07:06;;;;;;;9.18;3.80;;;;;;;11.79;100.00;99717.67;1738942;82;21032;-62
2022/05/23 02:09:36;;;;;;;6.10;3.75;;;;;;;11.56;100.00;99715.70;1718037;82;21056;-62
2022/05/23 02:12:22;;;;;;;6.15;3.90;;;;;;;11.68;100.00;99701.20;1738939;82;21005;-62
2022/05/23 02:14:52;;;;;;;8.25;4.28;;;;;;;11.72;100.00;99707.38;1738696;82;21108;-62
2022/05/23 02:17:31;;;;;;;7.67;4.12;;;;;;;12.34;100.00;99710.81;1673203;85;21056;-61
2022/05/23 02:20:00;;;;;;;5.95;4.30;;;;;;;12.29;100.00;99715.93;1675263;86;21620;-62
2022/05/23 02:22:27;;;;;;;8.58;4.80;;;;;;;12.52;100.00;99718.31;1675735;86;21548;-63
2022/05/23 02:24:56;;;;;;;11.33;4.80;;;;;;;12.73;100.00;99713.49;1674145;85;21073;-61
2022/05/23 02:27:23;;;;;;;8.88;4.60;;;;;;;12.51;100.00;99718.78;1739017;82;21084;-62
2022/05/23 02:29:51;;;;;;;11.15;4.78;;;;;;;12.54;100.00;99728.90;1738856;82;21013;-62
2022/05/23 02:32:19;;;;;;;11.35;5.40;;;;;;;12.52;100.00;99730.75;1738556;82;21073;-62
2022/05/23 02:34:48;;;;;;;9.85;5.08;;;;;;;12.54;100.00;99734.53;1675936;86;21088;-62
2022/05/23 02:37:16;;;;;;;11.48;5.72;;;;;;;12.49;100.00;99743.88;1675273;85;21100;-62
2022/05/23 02:39:45;;;;;;;8.85;4.65;;;;;;;12.63;100.00;99742.95;1675591;85;21048;-62
2022/05/23 02:42:12;;;;;;;11.70;5.10;;;;;;;12.59;100.00;99750.09;1675547;86;21147;-62
2022/05/23 02:44:39;;;;;;;9.15;5.40;;;;;;;12.55;100.00;99746.05;1675563;86;21100;-61
2022/05/23 02:47:09;;;;;;;9.88;4.80;;;;;;;12.54;100.00;99748.73;1675320;86;21100;-62
2022/05/23 02:49:39;;;;;;;10.90;5.17;;;;;;;12.59;100.00;99741.50;1675353;85;21001;-62
2022/05/23 02:52:09;;;;;;;9.95;4.95;;;;;;;12.68;100.00;99747.84;1675292;86;21540;-62
2022/05/23 02:54:41;;;;;;;9.43;4.83;;;;;;;12.74;100.00;99751.31;1647170;86;21061;-62
2022/05/23 02:57:09;;;;;;;10.38;5.50;;;;;;;12.79;100.00;99759.58;1738624;82;21068;-62
2022/05/23 02:59:38;;;;;;;13.30;5.42;;;;;;;12.73;100.00;99760.83;1738990;82;21047;-62
2022/05/23 03:04:52;;;;;;;10.78;5.40;;;;;;;12.88;100.00;99771.08;1675542;85;21067;-62
2022/05/23 03:07:20;;;;;;;11.00;5.45;;;;;;;12.91;100.00;99773.45;1738689;82;21040;-62
2022/05/23 03:09:48;;;;;;;10.08;5.20;;;;;;;12.89;100.00;99770.14;1663527;85;21135;-62
2022/05/23 03:12:17;;;;;;;9.80;5.78;;;;;;;13.02;100.00;99766.66;1675454;85;21052;-63
2022/05/23 03:14:45;;;;;;;11.45;5.20;;;;;;;13.23;100.00;99771.32;1675295;85;21073;-63
2022/05/23 03:17:13;;;;;;;14.95;5.58;;;;;;;13.00;100.00;99780.14;1675423;86;21033;-63
2022/05/23 03:19:42;;;;;;;9.35;5.08;;;;;;;13.17;100.00;99775.61;1738789;82;21005;-63
2022/05/23 03:27:44;;;;;;;10.65;5.05;;;;;;;13.33;100.00;99793.06;1675584;86;21093;-63
2022/05/23 03:30:14;;;;;;;11.90;5.65;;;;;;;13.33;100.00;99792.25;1674947;85;21143;-63
2022/05/23 03:32:47;;;;;;;8.98;4.42;;;;;;;13.48;100.00;99798.13;1737607;82;21020;-63
2022/05/23 03:35:14;;;;;;;9.65;4.62;;;;;;;13.55;100.00;99797.63;1738636;82;21107;-63
2022/05/23 03:37:42;;;;;;;10.32;4.62;;;;;;;13.64;100.00;99807.80;1744115;82;21494;-63
2022/05/23 03:40:11;;;;;;;7.53;4.28;;;;;;;13.78;100.00;99805.09;1744058;82;21017;-63
2022/05/23 03:42:41;;;;;;;7.33;4.30;;;;;;;13.81;100.00;99807.48;1670970;86;21052;-63
2022/05/23 03:45:10;;;;;;;9.13;3.60;;;;;;;13.68;100.00;99811.83;1744428;82;21044;-63
2022/05/23 03:47:46;;;;;;;7.62;4.00;;;;;;;13.80;100.00;99810.98;1744245;82;21091;-63
2022/05/23 03:50:22;;;;;;;6.35;4.08;;;;;;;13.90;100.00;99812.95;1744569;82;21032;-63
2022/05/23 03:52:52;;;;;;;6.87;3.77;;;;;;;14.00;100.00;99818.67;1744549;82;21032;-63
2022/05/23 03:55:28;;;;;;;7.42;3.70;;;;;;;14.10;100.00;99821.92;1670708;86;21126;-63
2022/05/23 03:57:57;;;;;;;7.30;3.60;;;;;;;14.15;100.00;99816.80;1742206;82;21016;-62
2022/05/23 04:00:25;;;;;;;6.92;3.90;;;;;;;13.96;100.00;99826.29;1671152;86;21532;-62
2022/05/23 04:02:53;;;;;;;5.87;3.55;;;;;;;14.12;100.00;99819.58;1744194;82;21005;-62
2022/05/23 04:05:20;;;;;;;6.67;3.70;;;;;;;14.13;100.00;99816.52;1744596;82;21004;-62
2022/05/23 04:08:07;;;;;;;6.40;3.70;;;;;;;14.13;100.00;99825.13;1744331;82;21037;-62
2022/05/23 04:10:40;;;;;;;6.12;3.60;;;;;;;14.37;100.00;99816.56;1744217;82;21079;-62
2022/05/23 04:13:07;;;;;;;6.42;3.72;;;;;;;14.38;100.00;99819.52;1715210;82;21552;-62
2022/05/23 04:15:36;;;;;;;8.25;3.70;;;;;;;14.38;100.00;99816.94;1744374;82;21147;-63
2022/05/23 04:18:03;;;;;;;6.95;3.90;;;;;;;14.34;100.00;99816.80;1744533;82;21492;-62
2022/05/23 04:20:31;;;;;;;5.47;3.50;;;;;;;14.41;100.00;99815.41;1744470;82;21024;-62
2022/05/23 04:23:00;;;;;;;7.00;3.52;;;;;;;14.53;100.00;99815.82;1744150;82;21028;-62
2022/05/23 04:25:27;;;;;;;8.70;3.75;;;;;;;14.62;100.00;99818.27;1744295;82;21044;-62
2022/05/23 04:27:57;;;;;;;7.75;3.52;;;;;;;14.42;100.00;99819.66;1670915;86;21096;-63
2022/05/23 04:30:25;;;;;;;6.62;3.85;;;;;;;14.55;100.00;99819.13;1744524;82;21001;-62
2022/05/23 04:35:39;;;;;;;8.30;4.05;;;;;;;14.83;100.00;99821.06;1701213;82;21038;-62
2022/05/23 04:38:09;;;;;;;8.03;3.33;;;;;;;14.55;100.00;99824.78;1733433;82;21007;-63
2022/05/23 04:40:39;;;;;;;5.22;3.27;;;;;;;13.91;100.00;99820.62;1727716;82;21066;-62
2022/05/23 04:43:06;;;;;;;5.10;3.02;;;;;;;13.81;100.00;99817.02;1730778;82;21018;-62
2022/05/23 04:45:36;;;;;;;4.90;3.27;;;;;;;14.14;100.00;99812.54;1732532;81;21526;-62
2022/05/23 04:50:55;;;;;;;4.05;2.60;;;;;;;14.76;100.00;99825.02;1733182;82;21055;-62
2022/05/23 04:53:24;;;;;;;5.65;3.10;;;;;;;14.50;100.00;99835.48;1704797;82;21506;-63
2022/05/23 04:56:06;;;;;;;3.20;2.52;;;;;;;14.74;100.00;99836.81;1723962;82;21066;-62
2022/05/23 04:58:34;;;;;;;4.12;2.40;;;;;;;15.81;94.39;99835.81;1716463;82;21030;-62
2022/05/23 05:01:02;;;;;;;3.42;2.80;;;;;;;14.76;98.10;99836.68;1716560;83;21141;-62
2022/05/23 05:03:31;;;;;;;3.27;2.55;;;;;;;15.73;96.17;99842.03;1716402;82;21031;-62
2022/05/23 05:06:00;;;;;;;3.20;2.58;;;;;;;16.08;91.23;99842.41;1716360;82;21515;-62
2022/05/23 05:08:28;;;;;;;6.78;2.50;;;;;;;15.67;96.90;99837.76;1715744;83;21113;-62
2022/05/23 05:10:58;;;;;;;6.72;3.08;;;;;;;16.03;93.33;99843.22;1715316;82;21129;-62
2022/05/23 05:13:32;;;;;;;7.42;3.10;;;;;;;16.12;91.46;99849.02;1715581;83;21256;-62
2022/05/23 05:16:00;;;;;;;3.25;2.80;;;;;;;15.85;92.21;99848.54;1715301;83;21150;-61
2022/05/23 05:18:28;;;;;;;5.70;2.75;;;;;;;16.03;90.71;99851.83;1715645;82;20979;-62
2022/05/23 05:21:05;;;;;;;4.42;2.70;;;;;;;16.54;90.00;99850.45;1711708;83;21598;-62
2022/05/23 05:23:35;;;;;;;6.92;2.90;;;;;;;16.19;86.95;99848.87;1650735;84;21062;-62
2022/05/23 05:26:06;;;;;;;6.60;3.22;;;;;;;16.74;85.18;99849.34;1689178;84;21593;-62
2022/05/23 05:28:36;;;;;;;5.03;2.50;;;;;;;16.60;86.03;99854.34;1714993;83;21019;-62
2022/05/23 05:31:14;;;;;;;4.55;2.67;;;;;;;16.86;82.44;99854.88;1715587;82;21019;-62
2022/05/23 05:33:47;;;;;;;5.15;2.67;;;;;;;16.70;83.00;99857.86;1715519;84;21039;-62
2022/05/23 05:36:20;;;;;;;3.92;3.00;;;;;;;17.54;83.08;99861.88;1717132;82;21117;-62
2022/05/23 05:38:54;;;;;;;5.40;3.20;;;;;;;17.42;78.48;99857.22;1724622;83;21043;-62
2022/05/23 05:41:27;;;;;;;4.65;3.22;;;;;;;17.27;80.66;99863.67;1687719;84;21099;-62
2022/05/23 05:44:07;;;;;;;8.85;3.30;;;;;;;17.25;80.10;99856.96;1724659;82;21063;-63
2022/05/23 05:46:52;;;;;;;6.20;3.62;;;;;;;18.01;76.21;99858.84;1724571;82;21536;-63
2022/05/23 05:49:49;;;;;;;5.62;3.10;;;;;;;18.59;73.01;99863.36;1698241;80;21170;-62
2022/05/23 05:52:19;;;;;;;4.83;3.25;;;;;;;18.37;74.37;99868.33;1720642;82;21026;-63
2022/05/23 05:54:52;;;;;;;7.37;3.12;;;;;;;18.61;74.32;99862.30;1700195;84;21043;-62
2022/05/23 05:57:21;;;;;;;8.88;3.52;;;;;;;18.74;72.54;99868.54;1719966;83;21512;-64
2022/05/23 05:59:49;;;;;;;4.75;3.17;;;;;;;18.79;70.81;99869.45;1700269;84;21547;-62
2022/05/23 06:02:17;;;;;;;6.33;3.17;;;;;;;18.44;72.05;99862.94;1720383;82;21030;-62
2022/05/23 06:04:45;;;;;;;5.60;3.17;;;;;;;18.41;72.05;99865.83;1700081;84;21559;-62
2022/05/23 06:12:54;;;;;;;5.33;2.87;;;;;;;18.78;70.63;99867.31;1699853;84;21058;-62
2022/05/23 06:15:43;;;;;;;4.97;3.22;;;;;;;18.75;69.45;99869.36;1699806;83;21051;-61
2022/05/23 06:18:10;;;;;;;4.40;2.85;;;;;;;19.60;67.03;99869.11;1720182;83;21029;-61
2022/05/23 06:20:39;;;;;;;4.37;2.70;;;;;;;18.92;66.52;99876.55;1720206;83;21042;-61
2022/05/23 06:23:07;;;;;;;5.22;2.92;;;;;;;19.30;66.34;99868.83;1720426;83;21060;-61
2022/05/23 06:25:36;;;;;;;3.98;3.08;;;;;;;18.64;65.91;99871.62;1720379;83;21021;-61
2022/05/23 06:28:05;;;;;;;3.72;2.85;;;;;;;18.57;65.98;99871.34;1720200;83;21077;-61
2022/05/23 06:30:33;;;;;;;3.37;2.50;;;;;;;18.41;67.24;99871.04;1720398;83;21038;-61
2022/05/23 06:33:04;;;;;;;7.20;2.65;;;;;;;18.57;67.14;99866.13;1720067;83;21524;-61
2022/05/23 06:35:35;;;;;;;4.40;2.40;;;;;;;18.62;65.75;99859.20;1698218;83;21494;-61
2022/05/23 06:38:03;;;;;;;3.40;2.47;;;;;;;19.05;65.51;99864.52;1719967;83;21081;-61
2022/05/23 06:40:50;;;;;;;6.72;2.87;;;;;;;19.23;63.39;99864.66;1720293;82;21038;-61
2022/05/23 06:43:39;;;;;;;5.08;2.80;;;;;;;19.91;61.63;99866.28;1720090;83;21023;-61
2022/05/23 06:46:22;;;;;;;7.92;3.45;;;;;;;19.42;60.92;99863.78;1720511;83;21499;-61
2022/05/23 06:48:51;;;;;;;8.05;3.60;;;;;;;19.06;63.81;99870.09;1675769;84;21078;-61
2022/05/23 06:51:36;;;;;;;5.05;3.25;;;;;;;18.98;62.35;99868.66;1655893;84;21026;-61
2022/05/23 06:54:03;;;;;;;6.40;4.03;;;;;;;19.08;63.20;99868.63;1696194;85;21065;-61
2022/05/23 06:56:48;;;;;;;11.88;4.40;;;;;;;19.52;62.59;99866.38;1696126;84;21475;-61
2022/05/23 06:59:19;;;;;;;6.37;3.75;;;;;;;19.89;63.26;99860.38;1696113;84;21049;-61
2022/05/23 07:01:47;;;;;;;10.35;4.00;;;;;;;19.42;62.81;99867.70;1696282;85;21053;-61
2022/05/23 07:12:19;;;;;;;6.90;3.75;;;;;;;19.29;63.98;99874.53;1695658;84;21082;-60
2022/05/23 07:12:36;;;;;;;6.47;3.72;;;;;;;20.27;62.39;99872.94;1695677;84;21023;-61
2022/05/23 07:15:07;;;;;;;4.78;3.17;;;;;;;19.61;63.70;99876.81;1696128;83;21090;-62
2022/05/23 07:17:36;;;;;;;5.47;3.30;;;;;;;20.03;62.84;99867.74;1696360;83;21042;-61
2022/05/23 07:20:12;;;;;;;9.55;3.70;;;;;;;19.90;61.60;99871.19;1674022;84;21070;-61
2022/05/23 07:22:40;;;;;;;7.85;3.40;;;;;;;20.74;61.49;99876.27;1696398;85;21006;-61
2022/05/23 07:25:09;;;;;;;9.45;3.52;;;;;;;20.13;61.38;99877.70;1696047;84;21046;-60
2022/05/23 07:27:37;;;;;;;7.85;3.67;;;;;;;20.20;61.34;99881.36;1696739;85;21510;-61
2022/05/23 07:30:07;;;;;;;5.50;3.55;;;;;;;20.68;61.21;99889.09;1696230;84;21507;-61
2022/05/23 07:32:36;;;;;;;9.35;4.42;;;;;;;20.29;59.74;99892.72;1696517;85;21074;-61
2022/05/23 07:35:06;;;;;;;4.95;3.40;;;;;;;20.53;59.53;99894.80;1695674;85;21047;-61
2022/05/23 07:37:34;;;;;;;10.95;3.80;;;;;;;20.38;59.30;99894.48;1696365;85;21019;-61
2022/05/23 07:40:04;;;;;;;7.50;3.37;;;;;;;20.24;59.97;99890.23;1696320;85;21023;-62
2022/05/23 07:42:37;;;;;;;5.55;3.42;;;;;;;20.10;61.65;99891.53;1695385;84;21523;-62
2022/05/23 07:45:07;;;;;;;6.90;3.35;;;;;;;20.24;62.52;99895.45;1696599;85;21459;-61
2022/05/23 07:47:35;;;;;;;6.85;3.85;;;;;;;20.34;62.23;99891.81;1696455;85;21097;-61
2022/05/23 07:50:06;;;;;;;7.20;3.90;;;;;;;20.50;60.16;99887.27;1717745;83;21022;-61
2022/05/23 07:52:34;;;;;;;6.45;4.00;;;;;;;20.92;60.17;99895.05;1698654;83;21013;-61
2022/05/23 08:00:38;;;;;;;6.35;3.83;;;;;;;20.64;59.43;99896.89;1722541;83;21077;-61
2022/05/23 08:03:16;;;;;;;6.75;3.58;;;;;;;20.66;59.28;99894.49;1722167;83;21066;-61
2022/05/23 08:05:45;;;;;;;7.62;4.08;;;;;;;19.94;61.77;99898.17;1698063;83;21070;-61
2022/05/23 08:08:14;;;;;;;6.30;3.35;;;;;;;19.37;63.08;99895.53;1722688;83;21025;-61
2022/05/23 08:10:42;;;;;;;5.37;3.30;;;;;;;19.50;63.34;99894.42;1722712;83;21542;-61
2022/05/23 08:13:09;;;;;;;8.93;3.85;;;;;;;19.94;62.37;99892.14;1722597;83;21500;-61
2022/05/23 08:15:40;;;;;;;5.85;3.37;;;;;;;19.89;61.74;99899.11;1722692;82;21058;-61
2022/05/23 08:18:10;;;;;;;7.55;3.55;;;;;;;20.19;61.09;99894.56;1722739;83;21026;-60
2022/05/23 08:20:39;;;;;;;6.28;3.65;;;;;;;20.24;61.76;99901.99;1722628;83;21025;-61
2022/05/23 08:23:06;;;;;;;7.92;3.27;;;;;;;20.44;59.73;99896.16;1722563;83;21109;-61
2022/05/23 08:25:35;;;;;;;6.22;3.58;;;;;;;20.98;60.34;99900.98;1722730;83;21533;-61
2022/05/23 08:28:04;;;;;;;4.30;3.42;;;;;;;20.75;59.69;99902.74;1722501;83;21089;-61
2022/05/23 08:30:32;;;;;;;5.78;3.52;;;;;;;20.47;58.82;99904.53;1722725;83;21006;-61
2022/05/23 08:33:01;;;;;;;5.10;3.47;;;;;;;20.91;58.56;99899.47;1722687;83;21018;-61
2022/05/23 08:35:28;;;;;;;5.12;3.37;;;;;;;20.79;58.48;99895.42;1722775;83;21534;-61
2022/05/23 08:37:59;;;;;;;4.92;3.33;;;;;;;20.84;58.42;99899.71;1722913;83;21041;-61
2022/05/23 08:41:18;;;;;;;6.72;3.30;;;;;;;20.63;58.37;99886.11;1714595;83;21026;-61
2022/05/23 08:44:16;;;;;;;5.15;3.15;;;;;;;20.40;58.28;99892.55;1722611;83;21045;-61
2022/05/23 08:46:59;;;;;;;6.45;3.12;;;;;;;19.96;60.07;99898.05;1722699;83;21064;-60
2022/05/23 08:49:45;;;;;;;6.35;3.50;;;;;;;20.32;59.26;99890.33;1722458;83;21073;-61
2022/05/23 08:52:20;;;;;;;5.05;2.87;;;;;;;20.60;58.96;99884.63;1722703;83;21034;-61
2022/05/23 08:55:03;;;;;;;7.80;3.27;;;;;;;20.49;57.65;99897.37;1712511;83;21049;-61
2022/05/23 08:58:05;;;;;;;6.20;3.40;;;;;;;21.11;57.10;99894.91;1722537;83;21038;-60
2022/05/23 09:00:46;;;;;;;3.87;3.00;;;;;;;21.65;53.96;99895.31;1722496;83;21006;-61
2022/05/23 09:03:21;;;;;;;5.90;3.05;;;;;;;21.38;54.94;99895.76;1722937;83;21009;-61
2022/05/23 09:06:05;;;;;;;3.30;2.72;;;;;;;22.17;53.42;99886.89;1722552;83;21010;-61
2022/05/23 09:08:52;;;;;;;6.40;2.70;;;;;;;22.14;52.86;99891.16;1722972;83;21554;-61
2022/05/23 09:11:38;;;;;;;3.20;2.30;;;;;;;22.44;52.65;99894.72;1722546;83;21038;-61
2022/05/23 09:14:09;;;;;;;5.75;2.60;;;;;;;21.67;51.26;99891.55;1722586;82;21550;-61
2022/05/23 09:16:48;;;;;;;3.30;2.58;;;;;;;21.66;52.38;99891.23;1722611;83;21030;-61
2022/05/23 09:19:44;;;;;;;4.60;2.70;;;;;;;21.85;51.99;99891.99;1722849;83;21033;-61
2022/05/23 09:22:18;;;;;;;4.08;2.30;;;;;;;21.53;49.67;99892.97;1722325;83;21002;-61
2022/05/23 09:24:56;;;;;;;4.72;2.62;;;;;;;20.73;50.54;99890.79;1722769;83;21518;-61
2022/05/23 09:27:41;;;;;;;5.08;2.52;;;;;;;20.83;50.11;99885.50;1733803;82;21049;-61
2022/05/23 09:30:14;;;;;;;4.37;2.52;;;;;;;20.96;50.18;99880.20;1693711;85;21508;-61
2022/05/23 09:32:50;;;;;;;2.98;2.67;;;;;;;21.10;50.95;99889.31;1708312;84;21078;-61
2022/05/23 09:35:22;;;;;;;4.42;2.80;;;;;;;21.41;51.52;99886.28;1664495;86;21103;-61
2022/05/23 09:38:18;;;;;;;2.97;2.30;;;;;;;21.64;50.48;99891.06;1708610;84;21096;-61
2022/05/23 09:40:51;;;;;;;7.70;2.62;;;;;;;21.91;51.44;99893.49;1663334;86;21066;-61
2022/05/23 09:49:23;;;;;;;5.78;2.87;;;;;;;21.52;50.63;99890.49;1708167;84;21111;-61
2022/05/23 09:51:58;;;;;;;5.75;3.17;;;;;;;22.01;51.16;99885.02;1664488;86;21059;-61
2022/05/23 09:54:54;;;;;;;4.22;2.70;;;;;;;21.39;53.09;99893.00;1708505;84;21048;-61
2022/05/23 09:57:39;;;;;;;3.47;2.60;;;;;;;21.43;53.53;99890.09;1664589;86;21020;-61
2022/05/23 10:00:23;;;;;;;5.28;2.47;;;;;;;21.25;53.80;99894.86;1708138;84;21008;-62
2022/05/23 10:03:05;;;;;;;6.45;2.33;;;;;;;21.13;52.30;99896.07;1664518;86;21047;-62
2022/05/23 10:05:40;;;;;;;7.03;2.67;;;;;;;21.47;50.86;99900.59;1708187;84;21047;-61
2022/05/23 10:08:34;;;;;;;6.67;2.92;;;;;;;21.41;51.12;99901.52;1664587;86;21095;-62
2022/05/23 10:11:28;;;;;;;4.05;2.55;;;;;;;21.56;50.85;99900.50;1708125;84;21068;-62
2022/05/23 10:14:00;;;;;;;3.55;2.58;;;;;;;21.69;50.38;99902.70;1707995;84;21074;-62
2022/05/23 10:16:31;;;;;;;5.75;2.52;;;;;;;21.46;49.56;99908.13;1707478;83;21114;-61
2022/05/23 10:19:05;;;;;;;4.10;2.72;;;;;;;21.26;51.68;99903.03;1686838;84;21016;-61
2022/05/23 10:21:44;;;;;;;3.50;2.55;;;;;;;21.57;50.00;99905.24;1641463;86;21167;-60
2022/05/23 10:24:26;;;;;;;5.72;2.65;;;;;;;21.08;49.22;99909.58;1708441;84;21047;-61
2022/05/23 10:27:01;;;;;;;7.08;2.87;;;;;;;20.97;48.58;99905.41;1664309;86;21098;-61
2022/05/23 10:29:58;;;;;;;5.95;2.55;;;;;;;20.84;50.62;99906.25;1707792;84;21027;-61
2022/05/23 10:32:48;;;;;;;3.83;2.62;;;;;;;20.73;50.25;99910.41;1664442;86;21598;-62
2022/05/23 10:35:49;;;;;;;3.40;2.70;;;;;;;20.67;52.09;99899.23;1708424;84;21082;-62
2022/05/23 10:44:05;;;;;;;5.45;2.70;;;;;;;20.38;52.79;99906.24;1664649;86;21071;-61
2022/05/23 10:46:36;;;;;;;6.58;2.62;;;;;;;19.94;52.96;99902.09;1708178;84;21557;-61
2022/05/23 10:49:21;;;;;;;3.05;2.40;;;;;;;19.81;53.91;99898.99;1662949;86;21071;-61
2022/05/23 10:52:25;;;;;;;7.37;2.50;;;;;;;19.60;53.38;99896.52;1720124;83;21101;-61
2022/05/23 10:55:08;;;;;;;6.00;2.67;;;;;;;19.61;53.61;99892.96;1719950;83;21082;-61
2022/05/23 10:57:50;;;;;;;4.90;2.70;;;;;;;19.69;53.32;99901.37;1720585;83;21535;-61
2022/05/23 11:00:25;;;;;;;6.62;2.60;;;;;;;19.70;53.25;99901.23;1708642;83;21031;-61
2022/05/23 11:03:16;;;;;;;3.77;2.55;;;;;;;19.67;54.58;99902.00;1720172;83;21535;-61
2022/05/23 11:06:22;;;;;;;6.35;2.92;;;;;;;19.71;54.41;99901.63;1720761;83;21055;-61
2022/05/23 11:09:34;;;;;;;7.37;2.65;;;;;;;19.76;54.75;99907.23;1720546;83;21059;-61
2022/05/23 11:12:25;;;;;;;3.37;2.65;;;;;;;19.67;55.70;99900.23;1720803;83;21043;-61
2022/05/23 11:15:25;;;;;;;4.92;2.65;;;;;;;19.78;56.31;99900.08;1720569;82;21134;-62
2022/05/23 11:18:20;;;;;;;5.28;2.70;;;;;;;20.77;55.11;99901.29;1720747;83;21094;-61
2022/05/23 11:20:52;;;;;;;6.03;3.10;;;;;;;21.03;54.23;99896.14;1720713;83;21054;-61
2022/05/23 11:23:34;;;;;;;7.10;2.83;;;;;;;20.79;55.63;99901.97;1720941;83;21014;-61
2022/05/23 11:26:24;;;;;;;5.30;3.00;;;;;;;20.88;55.48;99900.24;1720589;83;21047;-61
2022/05/23 11:35:06;;;;;;;4.33;2.95;;;;;;;21.34;55.29;99902.28;1720841;83;21062;-62
2022/05/23 11:37:45;;;;;;;3.22;2.60;;;;;;;20.06;54.82;99905.36;1720427;83;21094;-61
2022/05/23 11:40:28;;;;;;;8.35;2.90;;;;;;;19.70;56.44;99909.07;1720802;83;21003;-61
2022/05/23 11:43:05;;;;;;;6.83;2.80;;;;;;;19.60;55.82;99914.80;1720102;83;21599;-61
2022/05/23 11:46:00;;;;;;;4.90;2.52;;;;;;;19.49;57.44;99907.95;1716676;83;21483;-61
2022/05/23 11:48:47;;;;;;;4.05;2.65;;;;;;;20.80;53.47;99914.06;1720463;83;21047;-61
2022/05/23 11:51:25;;;;;;;7.15;3.33;;;;;;;20.89;53.45;99905.83;1729680;83;21598;-61
2022/05/23 11:54:09;;;;;;;6.85;3.47;;;;;;;21.07;53.87;99907.95;1731144;83;21007;-61
2022/05/23 11:57:05;;;;;;;3.98;3.17;;;;;;;21.11;54.10;99911.09;1731396;83;21558;-61
2022/05/23 11:59:37;;;;;;;13.08;5.90;;;;;;;21.13;54.07;99901.30;1731015;83;21047;-61
2022/05/23 12:02:14;;;;;;;9.40;4.30;;;;;;;21.41;52.72;99907.22;1731369;83;21079;-60
2022/05/23 12:04:56;;;;;;;15.72;8.25;;;;;;;21.67;51.84;99912.52;1731371;83;21046;-61
2022/05/23 12:07:56;;;;;;;15.45;5.60;;;;;;;21.93;51.31;99912.50;1731260;83;21377;-60
2022/05/23 12:10:29;;;;;;;6.97;3.40;;;;;;;21.79;51.02;99913.08;1706491;83;21554;-61
2022/05/23 12:13:04;;;;;;;5.15;3.22;;;;;;;21.90;50.90;99910.70;1731296;83;21050;-61
2022/05/23 12:15:52;;;;;;;6.90;3.27;;;;;;;21.87;49.90;99916.23;1716945;81;21078;-62
2022/05/23 12:18:32;;;;;;;11.57;4.92;;;;;;;21.77;50.95;99913.22;1748428;82;21047;-61
2022/05/23 12:21:07;;;;;;;10.88;5.58;;;;;;;21.33;51.92;99917.17;1744747;81;21020;-62
2022/05/23 12:23:45;;;;;;;8.63;6.10;;;;;;;21.61;53.42;99913.12;1756193;81;21011;-61
2022/05/23 12:26:30;;;;;;;9.03;5.83;;;;;;;21.54;54.64;99923.40;1748458;81;21052;-61
2022/05/23 12:29:02;;;;;;;10.40;6.85;;;;;;;21.39;54.94;99917.87;1742345;82;21571;-61
2022/05/23 12:31:38;;;;;;;13.22;7.50;;;;;;;20.69;56.66;99923.44;1739667;82;21007;-61
2022/05/23 12:34:12;;;;;;;12.37;7.35;;;;;;;19.82;58.51;99922.83;1742434;81;21536;-61
2022/05/23 12:36:50;;;;;;;13.43;6.97;;;;;;;19.49;59.21;99930.64;1742494;81;21063;-61
2022/05/23 12:39:46;;;;;;;10.25;7.08;;;;;;;19.44;59.68;99928.42;1742554;82;21537;-61
2022/05/23 12:42:39;;;;;;;10.10;6.40;;;;;;;19.39;61.18;99926.23;1742301;82;21059;-61
2022/05/23 12:45:24;;;;;;;8.20;5.10;;;;;;;19.50;61.35;99923.95;1742603;82;21079;-61
2022/05/23 12:48:12;;;;;;;9.78;4.33;;;;;;;19.40;60.96;99927.90;1742290;82;21036;-61
2022/05/23 12:50:56;;;;;;;7.20;3.70;;;;;;;19.38;59.61;99924.60;1742207;82;21028;-61
2022/05/23 12:53:46;;;;;;;6.87;3.50;;;;;;;19.37;58.98;99933.37;1742187;81;21087;-61
2022/05/23 12:56:34;;;;;;;8.13;3.37;;;;;;;19.39;59.38;99932.76;1742337;82;21079;-61
2022/05/23 12:59:43;;;;;;;5.03;3.00;;;;;;;19.37;57.77;99933.37;1742080;82;21091;-61
2022/05/23 13:02:27;;;;;;;4.05;2.58;;;;;;;20.63;55.45;99930.08;1742314;82;21012;-61
2022/05/23 13:05:06;;;;;;;3.85;2.75;;;;;;;19.36;56.85;99932.20;1741683;82;21044;-62